Time;durP1;ratioP1;P1;durP2;ratioP2;P2;SDS_P1;SDS_P2;PMS_P1;PMS_P2;Temp;Humidity;BMP_temperature;BMP_pressure;BME280_temperature;BME280_humidity;BME280_pressure;Samples;Min_cycle;Max_cycle;Signal;HPM_P1;HPM_P2
2023/07/09 00:01:17;;;;;;;10.40;9.40;;;25.20;37.20;;;;;;5072634;28;20779;-56
2023/07/09 00:03:43;;;;;;;10.93;9.83;;;25.20;37.00;;;;;;5072691;28;20447;-56
2023/07/09 00:06:10;;;;;;;9.70;8.73;;;25.10;37.50;;;;;;5072556;28;20430;-53
2023/07/09 00:08:37;;;;;;;11.70;10.50;;;25.10;37.40;;;;;;5072425;28;20983;-56
2023/07/09 00:11:03;;;;;;;10.77;9.67;;;25.00;37.30;;;;;;5072252;28;20410;-55
2023/07/09 00:13:29;;;;;;;13.27;11.60;;;25.00;37.70;;;;;;5072339;28;20453;-53
2023/07/09 00:15:59;;;;;;;15.13;10.63;;;25.00;37.70;;;;;;5071124;28;20180;-56
2023/07/09 00:18:25;;;;;;;10.63;9.63;;;24.90;37.90;;;;;;5072421;28;20204;-53
2023/07/09 00:20:51;;;;;;;11.23;9.77;;;24.90;38.10;;;;;;5072146;28;20797;-55
2023/07/09 00:23:20;;;;;;;12.80;11.60;;;24.80;38.10;;;;;;5072219;28;20403;-56
2023/07/09 00:25:47;;;;;;;11.00;9.80;;;24.80;37.80;;;;;;5072493;28;20537;-53
2023/07/09 00:28:17;;;;;;;11.70;9.90;;;24.70;37.70;;;;;;5072081;28;20411;-53
2023/07/09 00:30:45;;;;;;;11.70;10.60;;;24.70;37.80;;;;;;5071147;28;20407;-55
2023/07/09 00:33:15;;;;;;;11.57;10.37;;;24.60;37.60;;;;;;5072140;28;20403;-55
2023/07/09 00:35:42;;;;;;;10.10;8.70;;;24.60;38.00;;;;;;5072175;28;20409;-53
2023/07/09 00:38:21;;;;;;;16.40;8.87;;;24.60;38.00;;;;;;5072298;28;20423;-55
2023/07/09 00:41:03;;;;;;;11.63;9.43;;;24.60;38.40;;;;;;5071916;28;20421;-56
2023/07/09 00:43:35;;;;;;;15.27;9.57;;;24.70;38.10;;;;;;5072213;28;20445;-56
2023/07/09 00:46:19;;;;;;;9.83;8.90;;;25.30;38.10;;;;;;5071956;28;20899;-56
2023/07/09 00:48:48;;;;;;;10.33;9.33;;;24.60;37.90;;;;;;5071998;28;20423;-56
2023/07/09 00:51:17;;;;;;;9.70;8.90;;;24.50;38.00;;;;;;5071895;28;20402;-54
2023/07/09 00:53:45;;;;;;;12.50;9.37;;;24.30;38.00;;;;;;5072200;28;20490;-54
2023/07/09 00:56:15;;;;;;;11.00;9.30;;;24.30;38.00;;;;;;5071728;28;20476;-56
2023/07/09 00:58:47;;;;;;;11.20;9.47;;;24.40;38.40;;;;;;5071800;28;20442;-56
2023/07/09 01:01:18;;;;;;;16.67;9.30;;;24.40;38.60;;;;;;5071748;28;20415;-53
2023/07/09 01:03:52;;;;;;;11.00;9.50;;;24.40;38.60;;;;;;5071833;28;20908;-53
2023/07/09 01:06:25;;;;;;;9.43;8.53;;;24.40;38.20;;;;;;5071966;28;20748;-55
2023/07/09 01:08:53;;;;;;;9.37;8.47;;;24.40;37.80;;;;;;5071738;28;20415;-56
2023/07/09 01:11:21;;;;;;;9.37;8.43;;;24.30;38.10;;;;;;5071498;28;20403;-54
2023/07/09 01:13:52;;;;;;;12.63;9.07;;;24.30;38.30;;;;;;5071728;28;20431;-55
2023/07/09 01:16:23;;;;;;;10.80;8.93;;;24.20;38.10;;;;;;5071962;28;20446;-56
2023/07/09 01:18:50;;;;;;;10.87;9.13;;;24.20;38.40;;;;;;5071810;28;20807;-56
2023/07/09 01:21:16;;;;;;;9.77;8.00;;;24.20;38.40;;;;;;5071499;28;20415;-53
2023/07/09 01:23:47;;;;;;;14.23;8.40;;;24.10;38.70;;;;;;5071890;28;20476;-56
2023/07/09 01:26:16;;;;;;;9.03;8.13;;;24.10;38.20;;;;;;5071981;28;20394;-56
2023/07/09 01:28:43;;;;;;;15.13;9.40;;;24.10;37.80;;;;;;5071667;28;20522;-56
2023/07/09 01:31:14;;;;;;;9.23;8.33;;;24.10;38.40;;;;;;5071483;28;20402;-55
2023/07/09 01:33:47;;;;;;;9.23;8.33;;;24.10;38.50;;;;;;5071896;28;20395;-56
2023/07/09 01:36:23;;;;;;;11.60;8.70;;;24.10;38.60;;;;;;5071713;28;20454;-53
2023/07/09 01:38:49;;;;;;;10.50;9.40;;;24.10;38.70;;;;;;5071781;28;20430;-56
2023/07/09 01:41:16;;;;;;;10.53;9.60;;;24.00;38.20;;;;;;5071457;28;20461;-56
2023/07/09 01:43:43;;;;;;;9.63;8.63;;;24.00;38.40;;;;;;5075329;28;20605;-53
2023/07/09 01:46:12;;;;;;;10.50;8.90;;;24.00;38.50;;;;;;5075204;28;20463;-57
2023/07/09 01:48:41;;;;;;;10.20;9.20;;;23.90;38.50;;;;;;5075061;28;20499;-56
2023/07/09 01:51:14;;;;;;;10.27;9.27;;;23.90;38.60;;;;;;5075282;28;20418;-54
2023/07/09 01:53:40;;;;;;;12.30;8.83;;;23.90;38.80;;;;;;5075275;28;20506;-56
2023/07/09 01:56:10;;;;;;;9.40;8.50;;;23.90;39.00;;;;;;5075219;28;20814;-53
2023/07/09 01:58:41;;;;;;;10.87;9.73;;;23.80;39.10;;;;;;5075202;28;20427;-54
2023/07/09 02:01:07;;;;;;;10.03;8.50;;;23.80;39.10;;;;;;5074763;28;20444;-55
2023/07/09 02:03:33;;;;;;;8.63;7.70;;;23.70;38.90;;;;;;5074801;28;20426;-54
2023/07/09 02:05:59;;;;;;;9.50;8.50;;;23.70;39.00;;;;;;5075115;28;20413;-56
2023/07/09 02:08:25;;;;;;;15.67;8.73;;;23.60;38.80;;;;;;5074903;28;20201;-56
2023/07/09 02:10:51;;;;;;;9.43;8.53;;;23.50;38.90;;;;;;5074534;28;20410;-54
2023/07/09 02:13:17;;;;;;;9.10;8.20;;;23.50;39.00;;;;;;5074597;28;20188;-56
2023/07/09 02:15:43;;;;;;;9.17;8.23;;;23.50;38.90;;;;;;5074686;28;20549;-53
2023/07/09 02:18:13;;;;;;;9.13;7.70;;;23.50;39.00;;;;;;5074528;28;20176;-54
2023/07/09 02:20:39;;;;;;;9.37;8.47;;;23.60;39.00;;;;;;5074349;28;20540;-56
2023/07/09 02:23:07;;;;;;;10.77;8.13;;;23.60;38.10;;;;;;5075213;28;20426;-57
2023/07/09 02:25:33;;;;;;;9.40;8.50;;;23.60;38.20;;;;;;5075036;28;20460;-54
2023/07/09 02:27:59;;;;;;;8.73;7.93;;;23.60;38.50;;;;;;5075233;28;20433;-54
2023/07/09 02:30:25;;;;;;;10.40;7.97;;;23.60;38.80;;;;;;5075137;28;20415;-57
2023/07/09 02:32:53;;;;;;;8.63;7.77;;;23.60;39.00;;;;;;5075049;28;20486;-55
2023/07/09 02:35:22;;;;;;;8.57;7.37;;;23.60;38.60;;;;;;5074873;28;20926;-55
2023/07/09 02:37:49;;;;;;;9.10;8.13;;;23.60;38.70;;;;;;5075220;28;20545;-54
2023/07/09 02:40:15;;;;;;;8.90;8.10;;;23.60;38.20;;;;;;5074995;28;20783;-54
2023/07/09 02:42:41;;;;;;;8.57;7.67;;;23.60;38.60;;;;;;5074853;28;20806;-57
2023/07/09 02:45:07;;;;;;;8.67;7.77;;;23.60;38.60;;;;;;5074773;28;20409;-56
2023/07/09 02:47:33;;;;;;;9.43;8.40;;;23.60;38.90;;;;;;5074847;28;20169;-57
2023/07/09 02:49:59;;;;;;;9.57;8.67;;;23.50;38.90;;;;;;5074511;28;20795;-54
2023/07/09 02:52:26;;;;;;;11.57;7.90;;;23.50;38.90;;;;;;5074554;28;20395;-55
2023/07/09 02:54:52;;;;;;;14.13;8.27;;;23.50;39.00;;;;;;5074042;28;20177;-55
2023/07/09 02:57:18;;;;;;;9.57;8.67;;;23.50;39.00;;;;;;5074484;28;20976;-54
2023/07/09 02:59:44;;;;;;;8.40;7.53;;;23.40;39.10;;;;;;5074118;28;20196;-57
2023/07/09 03:02:10;;;;;;;10.57;9.33;;;23.40;38.90;;;;;;5074829;28;20417;-57
2023/07/09 03:04:36;;;;;;;10.23;8.57;;;23.40;39.00;;;;;;5074421;28;20199;-54
2023/07/09 03:07:02;;;;;;;11.20;8.77;;;23.30;39.30;;;;;;5074332;28;20411;-53
2023/07/09 03:09:28;;;;;;;9.17;7.97;;;23.30;39.30;;;;;;5073976;28;20423;-54
2023/07/09 03:11:54;;;;;;;10.13;8.70;;;23.20;39.50;;;;;;5074374;28;20460;-58
2023/07/09 03:14:19;;;;;;;10.00;9.00;;;23.20;39.60;;;;;;5074089;28;20431;-57
2023/07/09 03:16:45;;;;;;;9.87;8.87;;;23.20;39.80;;;;;;5074158;28;20541;-56
2023/07/09 03:19:11;;;;;;;9.33;7.93;;;23.10;39.90;;;;;;5074156;28;20212;-55
2023/07/09 03:21:37;;;;;;;7.80;7.00;;;23.10;39.80;;;;;;5074165;28;20176;-54
2023/07/09 03:24:03;;;;;;;9.30;8.23;;;23.00;39.80;;;;;;5074126;28;20402;-54
2023/07/09 03:26:29;;;;;;;8.90;8.10;;;23.00;39.80;;;;;;5073786;28;20267;-54
2023/07/09 03:28:55;;;;;;;9.43;7.33;;;22.90;40.00;;;;;;5072283;28;20521;-57
2023/07/09 03:31:21;;;;;;;9.80;8.80;;;22.90;40.40;;;;;;5073821;28;20176;-57
2023/07/09 03:33:51;;;;;;;9.03;8.23;;;22.90;40.50;;;;;;5073745;28;20460;-54
2023/07/09 03:36:19;;;;;;;8.97;8.10;;;22.80;40.50;;;;;;5073476;28;20554;-57
2023/07/09 03:38:45;;;;;;;9.27;8.37;;;22.80;40.60;;;;;;5073457;28;20453;-57
2023/07/09 03:41:11;;;;;;;10.07;9.13;;;22.80;40.60;;;;;;5073343;28;20544;-55
2023/07/09 03:43:37;;;;;;;9.30;8.20;;;22.80;40.70;;;;;;5073515;28;20449;-54
2023/07/09 03:46:03;;;;;;;9.60;7.50;;;22.80;40.70;;;;;;5073526;28;20172;-58
2023/07/09 03:48:28;;;;;;;9.43;8.63;;;22.90;40.80;;;;;;5073791;28;20196;-55
2023/07/09 03:50:55;;;;;;;9.30;8.43;;;22.90;40.50;;;;;;5073215;28;20395;-57
2023/07/09 03:53:20;;;;;;;9.50;8.60;;;23.00;40.40;;;;;;5073601;28;20533;-57
2023/07/09 03:55:52;;;;;;;10.20;9.00;;;23.00;40.10;;;;;;5073346;28;20407;-55
2023/07/09 03:58:18;;;;;;;10.00;8.40;;;23.10;39.60;;;;;;5073481;28;20160;-58
2023/07/09 04:00:44;;;;;;;9.70;8.60;;;23.10;39.70;;;;;;5073362;28;20406;-55
2023/07/09 04:03:11;;;;;;;9.10;8.30;;;23.10;39.60;;;;;;5073530;28;20478;-54
2023/07/09 04:05:37;;;;;;;11.27;10.17;;;23.20;39.80;;;;;;5073471;28;20808;-57
2023/07/09 04:08:03;;;;;;;10.33;8.80;;;23.20;39.70;;;;;;5073533;28;20446;-55
2023/07/09 04:10:29;;;;;;;9.50;8.57;;;23.30;39.70;;;;;;5073346;28;21022;-54
2023/07/09 04:12:55;;;;;;;9.10;7.90;;;23.30;39.20;;;;;;5073145;28;20414;-59
2023/07/09 04:15:21;;;;;;;8.80;7.80;;;23.40;38.60;;;;;;5073632;28;20172;-58
2023/07/09 04:17:46;;;;;;;8.47;7.57;;;23.40;38.40;;;;;;5073240;28;20245;-55
2023/07/09 04:20:13;;;;;;;9.80;8.90;;;23.40;38.50;;;;;;5073149;28;20281;-57
2023/07/09 04:22:39;;;;;;;9.47;8.53;;;23.50;38.20;;;;;;5073089;28;20176;-57
2023/07/09 04:25:09;;;;;;;9.80;8.87;;;23.50;38.20;;;;;;5073041;28;20502;-55
2023/07/09 04:27:36;;;;;;;9.77;8.03;;;23.60;38.40;;;;;;5072844;28;20498;-57
2023/07/09 04:30:04;;;;;;;9.37;8.20;;;23.60;37.90;;;;;;5072960;28;20427;-55
2023/07/09 04:32:31;;;;;;;8.70;8.00;;;23.60;37.90;;;;;;5072783;28;20419;-55
2023/07/09 04:34:56;;;;;;;10.27;9.27;;;23.70;38.30;;;;;;5072855;28;20987;-57
2023/07/09 04:37:22;;;;;;;8.83;7.97;;;23.80;38.40;;;;;;5072600;28;20529;-55
2023/07/09 04:39:49;;;;;;;10.70;8.93;;;23.80;38.40;;;;;;5072777;28;20427;-55
2023/07/09 04:42:16;;;;;;;13.90;9.30;;;23.90;38.90;;;;;;5072857;28;20244;-57
2023/07/09 04:44:44;;;;;;;9.03;8.13;;;23.90;39.10;;;;;;5072675;28;20910;-56
2023/07/09 04:47:12;;;;;;;9.83;8.37;;;24.00;39.00;;;;;;5072892;28;20970;-55
2023/07/09 04:49:38;;;;;;;9.53;8.63;;;24.00;38.60;;;;;;5071397;28;20807;-57
2023/07/09 04:52:04;;;;;;;9.40;8.60;;;24.20;37.90;;;;;;5072359;28;20944;-57
2023/07/09 04:54:30;;;;;;;10.90;9.30;;;24.30;37.30;;;;;;5072858;28;20407;-55
2023/07/09 04:56:56;;;;;;;8.90;7.57;;;24.30;37.50;;;;;;5072633;28;20461;-55
2023/07/09 04:59:23;;;;;;;8.67;7.80;;;24.40;36.80;;;;;;5072680;28;20195;-57
2023/07/09 05:01:49;;;;;;;8.53;7.70;;;24.50;37.10;;;;;;5071689;28;20415;-56
2023/07/09 05:04:15;;;;;;;9.53;8.53;;;24.50;36.80;;;;;;5072535;28;20441;-55
2023/07/09 05:06:41;;;;;;;10.37;9.37;;;24.50;37.10;;;;;;5072492;28;20955;-55
2023/07/09 05:09:08;;;;;;;9.43;8.43;;;24.60;36.60;;;;;;5072772;28;20430;-57
2023/07/09 05:11:36;;;;;;;10.00;8.27;;;24.70;36.30;;;;;;5072686;28;20493;-55
2023/07/09 05:14:02;;;;;;;8.53;7.70;;;24.80;36.10;;;;;;5072151;28;20438;-58
2023/07/09 05:16:29;;;;;;;9.23;8.33;;;24.80;36.40;;;;;;5073168;28;20450;-54
2023/07/09 05:18:55;;;;;;;8.00;7.30;;;24.90;36.10;;;;;;5076460;28;20415;-55
2023/07/09 05:21:21;;;;;;;9.83;7.90;;;25.00;36.20;;;;;;5076259;28;20544;-58
2023/07/09 05:23:46;;;;;;;8.43;7.57;;;25.10;36.00;;;;;;5076500;28;20169;-55
2023/07/09 05:26:12;;;;;;;10.20;9.20;;;25.10;36.00;;;;;;5076611;28;20498;-55
2023/07/09 05:28:38;;;;;;;9.40;8.50;;;25.20;36.00;;;;;;5076322;28;20220;-57
2023/07/09 05:31:07;;;;;;;11.23;9.07;;;25.30;36.00;;;;;;5076239;28;20175;-57
2023/07/09 05:33:33;;;;;;;9.10;8.10;;;25.40;36.20;;;;;;5076325;28;20179;-55
2023/07/09 05:35:58;;;;;;;9.57;8.60;;;25.40;35.90;;;;;;5075979;28;20407;-55
2023/07/09 05:38:24;;;;;;;10.10;9.20;;;25.50;34.80;;;;;;5076568;28;20218;-57
2023/07/09 05:41:03;;;;;;;8.63;7.83;;;25.60;35.10;;;;;;5076563;28;20663;-57
2023/07/09 05:43:29;;;;;;;9.77;8.87;;;25.80;34.40;;;;;;5076138;28;20160;-54
2023/07/09 05:45:54;;;;;;;17.50;8.50;;;25.80;34.00;;;;;;5076410;28;20403;-57
2023/07/09 05:48:20;;;;;;;9.93;8.63;;;25.90;33.20;;;;;;5076512;28;20409;-58
2023/07/09 05:50:48;;;;;;;8.70;7.30;;;25.90;33.60;;;;;;5076433;28;20238;-55
2023/07/09 05:53:14;;;;;;;11.57;9.13;;;26.00;34.50;;;;;;5076292;28;20645;-57
2023/07/09 05:55:39;;;;;;;8.50;7.70;;;26.10;34.90;;;;;;5076353;28;20435;-55
2023/07/09 05:58:05;;;;;;;8.13;7.33;;;26.20;33.80;;;;;;5075799;28;20450;-55
2023/07/09 06:00:31;;;;;;;13.23;8.97;;;26.20;33.20;;;;;;5076045;28;20203;-57
2023/07/09 06:02:57;;;;;;;9.17;8.27;;;26.30;32.80;;;;;;5075833;28;20666;-54
2023/07/09 06:05:22;;;;;;;8.70;7.67;;;26.30;33.00;;;;;;5075978;28;20176;-55
2023/07/09 06:07:48;;;;;;;8.10;7.30;;;26.40;33.10;;;;;;5075837;28;20406;-57
2023/07/09 06:10:15;;;;;;;9.00;7.63;;;26.50;33.00;;;;;;5076157;28;20200;-57
2023/07/09 06:12:41;;;;;;;9.27;7.10;;;26.60;33.50;;;;;;5075621;28;20214;-55
2023/07/09 06:15:07;;;;;;;9.27;8.00;;;26.60;32.90;;;;;;5075472;28;20395;-55
2023/07/09 06:17:33;;;;;;;9.77;8.70;;;26.70;32.30;;;;;;5075434;28;20220;-57
2023/07/09 06:19:59;;;;;;;10.40;7.70;;;26.80;31.80;;;;;;5075434;28;20466;-55
2023/07/09 06:22:24;;;;;;;8.27;7.57;;;26.90;31.60;;;;;;5075429;28;20179;-55
2023/07/09 06:24:50;;;;;;;7.73;7.00;;;26.90;31.00;;;;;;5075378;28;20485;-57
2023/07/09 06:27:16;;;;;;;9.00;6.87;;;27.00;32.40;;;;;;5075299;28;20256;-54
2023/07/09 06:29:41;;;;;;;8.70;7.87;;;27.10;32.30;;;;;;5074057;28;20215;-57
2023/07/09 06:32:07;;;;;;;10.00;6.83;;;27.20;32.10;;;;;;5075665;28;20179;-57
2023/07/09 06:34:33;;;;;;;8.07;7.27;;;27.30;32.40;;;;;;5075528;28;20172;-54
2023/07/09 06:36:59;;;;;;;7.80;7.10;;;27.40;32.60;;;;;;5075453;28;20568;-57
2023/07/09 06:39:24;;;;;;;8.47;7.57;;;27.50;32.10;;;;;;5075207;28;20553;-55
2023/07/09 06:41:50;;;;;;;8.27;7.47;;;27.60;31.90;;;;;;5075595;28;20310;-55
2023/07/09 06:44:16;;;;;;;9.60;6.77;;;27.70;31.50;;;;;;5074950;28;20310;-55
2023/07/09 06:46:42;;;;;;;10.40;7.90;;;27.90;31.10;;;;;;5075256;28;20524;-55
2023/07/09 06:49:08;;;;;;;7.43;6.70;;;27.90;31.40;;;;;;5068335;28;20330;-55
2023/07/09 06:51:34;;;;;;;8.67;7.83;;;28.00;31.10;;;;;;5069279;28;20415;-55
2023/07/09 06:54:00;;;;;;;11.20;7.27;;;28.10;30.90;;;;;;5075085;28;20460;-57
2023/07/09 06:56:25;;;;;;;8.77;7.57;;;28.20;30.40;;;;;;5074918;28;20454;-58
2023/07/09 06:58:51;;;;;;;7.60;6.80;;;28.20;29.60;;;;;;5074735;28;20452;-55
2023/07/09 07:01:17;;;;;;;10.60;7.70;;;28.10;30.40;;;;;;5074692;28;20178;-55
2023/07/09 07:03:43;;;;;;;8.30;7.50;;;28.20;31.50;;;;;;5067817;28;20169;-56
2023/07/09 07:06:09;;;;;;;8.47;6.83;;;28.40;30.80;;;;;;5074213;28;20222;-57
2023/07/09 07:08:35;;;;;;;8.13;7.33;;;28.40;30.30;;;;;;5075173;28;20197;-54
2023/07/09 07:11:04;;;;;;;8.00;7.00;;;28.60;30.70;;;;;;5074354;28;20895;-54
2023/07/09 07:13:32;;;;;;;10.10;7.13;;;28.70;31.10;;;;;;5074639;28;20509;-57
2023/07/09 07:15:58;;;;;;;7.10;6.40;;;28.80;31.50;;;;;;5074458;28;20418;-54
2023/07/09 07:18:23;;;;;;;9.33;7.63;;;29.00;30.40;;;;;;5074852;28;20426;-54
2023/07/09 07:20:50;;;;;;;12.77;7.17;;;29.10;30.60;;;;;;5075013;28;20768;-56
2023/07/09 07:23:17;;;;;;;7.63;6.83;;;29.20;30.50;;;;;;5074869;28;20169;-55
2023/07/09 07:25:44;;;;;;;9.10;7.43;;;29.30;31.30;;;;;;5074524;28;20401;-55
2023/07/09 07:28:09;;;;;;;10.03;7.73;;;29.40;29.90;;;;;;5074465;28;20414;-56
2023/07/09 07:30:35;;;;;;;7.93;7.10;;;29.50;30.60;;;;;;5074237;28;20428;-57
2023/07/09 07:33:01;;;;;;;7.83;7.03;;;29.60;30.20;;;;;;5073019;28;20203;-55
2023/07/09 07:35:27;;;;;;;7.93;7.20;;;29.70;28.80;;;;;;5073062;28;20173;-55
2023/07/09 07:37:53;;;;;;;7.80;6.50;;;29.80;29.50;;;;;;5074898;28;20227;-57
2023/07/09 07:40:18;;;;;;;7.53;6.60;;;29.90;29.90;;;;;;5074145;28;20918;-56
2023/07/09 07:42:45;;;;;;;6.33;5.73;;;30.00;30.00;;;;;;5074503;28;20173;-54
2023/07/09 07:45:11;;;;;;;7.23;6.10;;;30.20;30.10;;;;;;5074418;28;20173;-54
2023/07/09 07:47:37;;;;;;;8.80;7.30;;;30.30;29.00;;;;;;5074701;28;20407;-54
2023/07/09 07:50:03;;;;;;;8.30;6.50;;;30.40;29.60;;;;;;5073926;28;20549;-56
2023/07/09 07:52:29;;;;;;;11.20;6.73;;;30.60;29.60;;;;;;5074346;28;20168;-54
2023/07/09 07:54:54;;;;;;;7.63;6.90;;;30.70;28.70;;;;;;5074027;28;20407;-54
2023/07/09 07:57:24;;;;;;;10.80;6.00;;;30.80;30.00;;;;;;5073699;28;20457;-56
2023/07/09 07:59:50;;;;;;;7.03;6.50;;;30.90;27.90;;;;;;5073623;28;20204;-56
2023/07/09 08:02:16;;;;;;;7.37;6.67;;;31.00;28.80;;;;;;5073738;28;20919;-54
2023/07/09 08:04:42;;;;;;;8.30;7.50;;;31.00;29.40;;;;;;5073633;28;20166;-54
2023/07/09 08:07:09;;;;;;;7.47;6.67;;;31.10;28.00;;;;;;5073590;28;20181;-54
2023/07/09 08:09:35;;;;;;;7.90;6.93;;;31.20;27.40;;;;;;5073226;28;20431;-56
2023/07/09 08:12:08;;;;;;;7.80;7.00;;;31.20;27.90;;;;;;5073183;28;20399;-54
2023/07/09 08:14:35;;;;;;;7.90;7.20;;;31.20;27.10;;;;;;5073168;28;21011;-54
2023/07/09 08:17:00;;;;;;;8.33;7.30;;;31.30;27.60;;;;;;5073167;28;20447;-56
2023/07/09 08:19:27;;;;;;;7.93;6.30;;;31.30;27.90;;;;;;5072990;28;20455;-56
2023/07/09 08:21:53;;;;;;;8.20;7.10;;;31.40;27.90;;;;;;5073898;28;20405;-58
2023/07/09 08:24:19;;;;;;;7.80;6.37;;;31.50;28.70;;;;;;5073198;28;20699;-55
2023/07/09 08:26:45;;;;;;;7.50;6.37;;;31.70;29.20;;;;;;5073503;28;20181;-55
2023/07/09 08:29:10;;;;;;;7.70;6.90;;;31.80;29.30;;;;;;5073179;28;20223;-57
2023/07/09 08:31:36;;;;;;;8.00;7.20;;;32.10;30.40;;;;;;5073191;28;20199;-54
2023/07/09 08:34:02;;;;;;;9.60;7.60;;;32.20;30.50;;;;;;5073435;28;20173;-56
2023/07/09 08:36:28;;;;;;;8.10;7.30;;;32.40;29.70;;;;;;5073168;28;20665;-56
2023/07/09 08:38:54;;;;;;;8.47;7.57;;;32.60;28.00;;;;;;5073606;28;20499;-55
2023/07/09 08:41:39;;;;;;;7.73;7.00;;;32.60;28.60;;;;;;5072962;28;20450;-55
2023/07/09 08:44:46;;;;;;;7.97;7.27;;;32.80;28.20;;;;;;5073293;28;20183;-54
2023/07/09 08:47:25;;;;;;;10.13;6.50;;;32.90;27.10;;;;;;5070661;28;20529;-54
2023/07/09 08:50:00;;;;;;;6.67;6.03;;;33.00;26.70;;;;;;5070342;28;20427;-56
2023/07/09 08:52:30;;;;;;;8.93;6.80;;;33.10;28.10;;;;;;5070147;28;20433;-56
2023/07/09 08:54:59;;;;;;;8.30;6.73;;;33.20;27.90;;;;;;5070849;28;20419;-54
2023/07/09 08:57:34;;;;;;;8.77;5.40;;;33.30;27.60;;;;;;5070441;28;20458;-54
2023/07/09 09:00:08;;;;;;;6.90;6.20;;;33.50;26.60;;;;;;5070196;28;20437;-57
2023/07/09 09:02:41;;;;;;;6.07;5.30;;;33.50;26.40;;;;;;5054234;28;20950;-56
2023/07/09 09:05:08;;;;;;;7.00;6.30;;;33.70;27.20;;;;;;5070628;28;20473;-54
2023/07/09 09:07:41;;;;;;;6.33;5.73;;;33.80;27.40;;;;;;5070617;28;20450;-56
2023/07/09 09:10:23;;;;;;;6.90;5.90;;;33.90;25.50;;;;;;5070015;28;20487;-54
2023/07/09 09:13:05;;;;;;;6.70;5.97;;;34.00;26.70;;;;;;5070160;28;20488;-56
2023/07/09 09:15:32;;;;;;;6.90;5.10;;;34.10;25.00;;;;;;5070367;28;20421;-56
2023/07/09 09:18:13;;;;;;;6.43;5.80;;;34.20;24.30;;;;;;5071310;28;20471;-54
2023/07/09 09:20:40;;;;;;;8.80;6.83;;;34.30;25.00;;;;;;5072307;28;20403;-57
2023/07/09 09:23:06;;;;;;;7.47;6.77;;;34.30;22.60;;;;;;5072247;28;20441;-56
2023/07/09 09:25:34;;;;;;;6.83;6.13;;;34.30;23.60;;;;;;5072235;28;20407;-55
2023/07/09 09:28:02;;;;;;;7.73;6.33;;;34.30;23.00;;;;;;5072221;28;20208;-54
2023/07/09 09:30:28;;;;;;;8.43;6.10;;;34.30;23.20;;;;;;5072243;28;20403;-56
2023/07/09 09:33:00;;;;;;;6.43;5.83;;;34.40;23.20;;;;;;5072330;28;20406;-54
2023/07/09 09:35:35;;;;;;;7.30;6.00;;;34.40;23.20;;;;;;5072271;28;20413;-54
2023/07/09 09:38:02;;;;;;;7.47;6.77;;;34.60;24.60;;;;;;5072272;28;20783;-57
2023/07/09 09:40:34;;;;;;;6.83;6.13;;;34.60;20.80;;;;;;5072197;28;20417;-55
2023/07/09 09:43:01;;;;;;;7.63;5.80;;;34.60;20.70;;;;;;5072143;28;20485;-55
2023/07/09 09:45:41;;;;;;;7.00;5.70;;;34.70;23.00;;;;;;5071487;28;20886;-58
2023/07/09 09:48:29;;;;;;;6.43;5.83;;;34.90;20.50;;;;;;5071420;28;20444;-56
2023/07/09 09:51:00;;;;;;;6.67;5.47;;;34.90;19.50;;;;;;5071318;28;20406;-55
2023/07/09 09:53:27;;;;;;;8.43;5.90;;;34.90;18.60;;;;;;5071483;28;20485;-53
2023/07/09 09:55:54;;;;;;;5.80;5.20;;;34.90;20.40;;;;;;5071400;28;20423;-55
2023/07/09 09:58:25;;;;;;;6.93;5.60;;;35.00;21.70;;;;;;5070926;28;20973;-54
2023/07/09 10:00:52;;;;;;;6.47;5.67;;;35.10;22.00;;;;;;5071105;28;20414;-54
2023/07/09 10:03:19;;;;;;;7.73;5.30;;;35.20;22.00;;;;;;5072987;28;20405;-56
2023/07/09 10:05:49;;;;;;;6.60;6.00;;;35.30;19.80;;;;;;5073501;28;20963;-54
2023/07/09 10:08:30;;;;;;;6.53;5.53;;;35.30;19.90;;;;;;5072152;28;20414;-54
2023/07/09 10:11:17;;;;;;;6.20;5.40;;;35.40;21.30;;;;;;5074507;28;20407;-54
2023/07/09 10:13:45;;;;;;;5.30;4.80;;;35.50;21.10;;;;;;5073349;28;20486;-53
2023/07/09 10:16:21;;;;;;;6.43;5.80;;;35.20;19.50;;;;;;5074756;28;20409;-56
2023/07/09 10:18:59;;;;;;;6.23;5.63;;;35.50;19.10;;;;;;5074699;28;20436;-53
2023/07/09 10:21:39;;;;;;;8.80;6.20;;;35.60;20.20;;;;;;5074410;28;20398;-53
2023/07/09 10:24:23;;;;;;;7.90;7.10;;;35.70;21.20;;;;;;5074763;28;20394;-55
2023/07/09 10:27:11;;;;;;;5.63;5.13;;;35.70;20.90;;;;;;5074388;28;20896;-53
2023/07/09 10:29:54;;;;;;;5.40;4.80;;;35.80;20.60;;;;;;5072908;28;20433;-55
2023/07/09 10:32:58;;;;;;;5.47;4.90;;;35.90;20.40;;;;;;5074398;28;20897;-53
2023/07/09 10:36:01;;;;;;;5.20;4.70;;;35.90;20.00;;;;;;5073672;28;20428;-55
2023/07/09 10:38:33;;;;;;;5.57;4.80;;;36.00;20.00;;;;;;5074133;28;20961;-56
2023/07/09 10:41:00;;;;;;;5.83;5.00;;;35.90;19.60;;;;;;5074065;28;20456;-53
2023/07/09 10:43:50;;;;;;;5.80;4.87;;;36.00;20.90;;;;;;5074207;28;20421;-55
2023/07/09 10:46:28;;;;;;;5.40;4.90;;;36.20;20.00;;;;;;5074169;28;20497;-55
2023/07/09 10:48:56;;;;;;;7.57;5.50;;;36.30;19.60;;;;;;5074059;28;20431;-53
2023/07/09 10:51:29;;;;;;;6.60;6.00;;;36.30;19.80;;;;;;5073893;28;20497;-55
2023/07/09 10:54:18;;;;;;;7.83;5.50;;;36.30;19.70;;;;;;5074168;28;20403;-52
2023/07/09 10:56:49;;;;;;;8.17;5.17;;;36.40;19.40;;;;;;5073803;28;20465;-54
2023/07/09 10:59:26;;;;;;;8.57;5.17;;;36.40;20.30;;;;;;5073773;28;20422;-52
2023/07/09 11:02:16;;;;;;;9.50;5.20;;;36.50;18.40;;;;;;5074294;28;20394;-55
2023/07/09 11:05:00;;;;;;;5.33;4.83;;;36.70;18.10;;;;;;5073874;28;20411;-53
2023/07/09 11:08:07;;;;;;;5.90;4.60;;;36.90;18.80;;;;;;5074031;28;20445;-55
2023/07/09 11:10:50;;;;;;;5.73;5.13;;;37.10;19.50;;;;;;5073108;28;20418;-55
2023/07/09 11:13:42;;;;;;;8.53;7.73;;;37.20;19.20;;;;;;5053506;28;20431;-52
2023/07/09 11:16:14;;;;;;;5.37;4.87;;;37.30;18.90;;;;;;5054892;28;20512;-55
2023/07/09 11:18:40;;;;;;;5.73;5.13;;;37.30;16.30;;;;;;5053609;28;20420;-55
2023/07/09 11:21:13;;;;;;;15.23;5.20;;;37.20;15.90;;;;;;5053408;28;20499;-56
2023/07/09 11:24:00;;;;;;;6.70;4.87;;;37.10;16.40;;;;;;5053437;28;20260;-55
2023/07/09 11:26:30;;;;;;;6.43;4.80;;;37.20;17.70;;;;;;5053427;28;20400;-55
2023/07/09 11:29:14;;;;;;;7.17;5.07;;;37.20;17.10;;;;;;5053609;28;20519;-55
2023/07/09 11:31:45;;;;;;;6.90;4.83;;;37.30;15.70;;;;;;5053433;28;20454;-55
2023/07/09 11:34:14;;;;;;;5.53;5.00;;;37.30;15.70;;;;;;5053157;28;20416;-54
2023/07/09 11:36:57;;;;;;;5.67;5.07;;;37.30;15.30;;;;;;5053143;28;20451;-56
2023/07/09 11:39:30;;;;;;;5.97;4.90;;;37.30;16.20;;;;;;5052948;28;20911;-54
2023/07/09 11:41:56;;;;;;;6.23;4.80;;;37.30;17.40;;;;;;5053414;28;20423;-56
2023/07/09 11:44:29;;;;;;;5.67;5.07;;;37.30;16.90;;;;;;5053060;28;20465;-56
2023/07/09 11:47:28;;;;;;;6.30;4.87;;;37.50;17.70;;;;;;5052922;28;20415;-53
2023/07/09 11:49:59;;;;;;;4.77;4.17;;;37.50;16.30;;;;;;5052753;28;20427;-55
2023/07/09 11:52:34;;;;;;;5.40;4.43;;;37.50;17.00;;;;;;5052842;28;20399;-53
2023/07/09 11:55:15;;;;;;;5.83;4.87;;;37.50;16.30;;;;;;5052766;28;20454;-54
2023/07/09 11:57:41;;;;;;;5.90;4.07;;;37.60;16.60;;;;;;5052979;28;20492;-53
2023/07/09 12:00:08;;;;;;;5.90;4.70;;;37.60;16.10;;;;;;5052492;28;20872;-56
2023/07/09 12:02:35;;;;;;;6.23;4.70;;;37.50;14.30;;;;;;5052813;28;20626;-54
2023/07/09 12:05:03;;;;;;;4.57;4.07;;;37.50;15.10;;;;;;5052648;28;20411;-56
2023/07/09 12:07:29;;;;;;;5.17;3.67;;;37.50;14.70;;;;;;5052564;28;20495;-56
2023/07/09 12:09:55;;;;;;;4.93;4.33;;;37.40;16.40;;;;;;5052244;28;20443;-54
2023/07/09 12:12:25;;;;;;;10.50;5.50;;;37.60;15.90;;;;;;5052373;28;20418;-57
2023/07/09 12:14:51;;;;;;;6.00;4.30;;;37.70;16.50;;;;;;5052632;28;20776;-56
2023/07/09 12:17:17;;;;;;;7.10;4.37;;;37.80;17.40;;;;;;5052465;28;20538;-55
2023/07/09 12:19:43;;;;;;;6.40;4.40;;;38.00;15.80;;;;;;5052197;28;20468;-57
2023/07/09 12:22:20;;;;;;;6.70;4.63;;;38.10;14.50;;;;;;5052571;28;20400;-57
2023/07/09 12:24:49;;;;;;;6.20;4.30;;;38.00;16.20;;;;;;5052620;28;20408;-54
2023/07/09 12:27:19;;;;;;;5.63;4.50;;;38.10;16.00;;;;;;5052133;28;20799;-57
2023/07/09 12:29:45;;;;;;;5.00;3.80;;;38.20;16.60;;;;;;5051918;28;20427;-54
2023/07/09 12:32:16;;;;;;;4.23;3.80;;;38.30;17.70;;;;;;5052090;28;20772;-54
2023/07/09 12:34:42;;;;;;;6.20;4.10;;;38.30;14.80;;;;;;5052067;28;20256;-57
2023/07/09 12:37:14;;;;;;;5.30;4.80;;;38.30;16.00;;;;;;5062999;28;20557;-54
2023/07/09 12:39:39;;;;;;;6.33;4.83;;;38.40;16.10;;;;;;5071775;28;20192;-56
2023/07/09 12:42:14;;;;;;;7.33;5.20;;;38.50;16.30;;;;;;5072283;28;20417;-56
2023/07/09 12:44:40;;;;;;;6.20;5.20;;;38.60;15.90;;;;;;5072086;28;20176;-53
2023/07/09 12:47:06;;;;;;;5.50;4.83;;;38.70;17.10;;;;;;5072011;28;20410;-56
2023/07/09 12:49:40;;;;;;;5.60;4.53;;;38.80;16.20;;;;;;5071831;28;20287;-57
2023/07/09 12:52:24;;;;;;;13.20;5.90;;;38.80;15.30;;;;;;5072113;28;20497;-55
2023/07/09 12:54:57;;;;;;;6.37;5.10;;;38.90;16.00;;;;;;5068301;28;20433;-55